John Quigg — WDB9828 — position and weather

sailwx.info

Track history (hours):
 
Tides and Currents Weather Stations Pressure Air Temp Water Temp Dewpoint Dewpoint Depression Visibility Wind Speed Wind Dir Waves Ship Positions

John Quigg

Owner: Harley Marine Services, Inc, Seattle, WA. More information available from US FCC via Universal Licensing System and Coast Guard Vessel Documentation Center.

Last reported at 2017-Aug-17 21:00 UTC. Time now 2017-Aug-17 21:13 UTC.
Position N 33°44' W 118°16'.

Length 27 m.

MMSI: 365934954.

Date/timePositionNaut miles runAvg speedWind from/ knotsBaromVisibWave heightAir tempDewpointWater temp
2017-Aug-17 21:00N 33°44' W 118°16'0 0.0
2017-Aug-17 20:30N 33°44' W 118°16'0 0.0
2017-Aug-17 20:00N 33°44' W 118°16'0 0.0
2017-Aug-17 19:30N 33°44' W 118°16'0 0.0
2017-Aug-17 18:59N 33°44' W 118°16'0 0.0
2017-Aug-17 18:30N 33°44' W 118°16'0 0.0
2017-Aug-17 18:00N 33°44' W 118°16'0 0.0
2017-Aug-17 17:30N 33°44' W 118°16'0 0.0
2017-Aug-17 17:00N 33°44' W 118°16'0 0.0
2017-Aug-17 16:30N 33°44' W 118°16'0 0.0
2017-Aug-17 16:01N 33°44' W 118°16'0 0.0
2017-Aug-17 15:30N 33°44' W 118°16'0 0.0
2017-Aug-17 15:00N 33°44' W 118°16'2 4.0
2017-Aug-17 14:28N 33°44' W 118°13'1 1.8
2017-Aug-17 14:00N 33°45' W 118°14'1 2.2
2017-Aug-17 13:28N 33°45' W 118°12'1 1.4
2017-Aug-17 12:59N 33°46' W 118°13'1 3.0
2017-Aug-17 12:30N 33°44' W 118°12'0 0.4
2017-Aug-17 11:59N 33°44' W 118°13'1 1.6
2017-Aug-17 11:26N 33°45' W 118°13'0 1.1
2017-Aug-17 11:01N 33°46' W 118°13'2 4.0
2017-Aug-17 10:30N 33°44' W 118°13'2 3.5
2017-Aug-17 09:59N 33°44' W 118°16'0 0.0
2017-Aug-17 09:29N 33°44' W 118°16'0 0.0
2017-Aug-17 09:00N 33°44' W 118°16'0 0.0
2017-Aug-17 08:30N 33°44' W 118°16'0 0.0
2017-Aug-17 08:00N 33°44' W 118°16'0 0.0
2017-Aug-17 07:29N 33°44' W 118°16'0 0.0
2017-Aug-17 07:00N 33°44' W 118°16'0 0.0
2017-Aug-17 06:29N 33°44' W 118°16'0 0.0
2017-Aug-17 05:58N 33°44' W 118°16'0 0.0
2017-Aug-17 05:30N 33°44' W 118°16'0 0.0
2017-Aug-17 04:59N 33°44' W 118°16'0 0.0
2017-Aug-17 04:28N 33°44' W 118°16'0 0.0
2017-Aug-17 04:00N 33°44' W 118°16'0 0.0
2017-Aug-17 03:31N 33°44' W 118°16'0 0.0
2017-Aug-17 02:58N 33°44' W 118°16'0 0.0
2017-Aug-17 02:31N 33°44' W 118°16'2 3.0
2017-Aug-17 01:59N 33°45' W 118°16'1 1.2
2017-Aug-17 01:30N 33°46' W 118°15'2 3.2
2017-Aug-17 01:00N 33°45' W 118°17'3 5.3
2017-Aug-17 00:30N 33°43' W 118°14'2 3.2
2017-Aug-16 23:52N 33°45' W 118°13'0 0.5
2017-Aug-16 23:30N 33°45' W 118°13'2 3.0
2017-Aug-16 23:00N 33°44' W 118°13'3 5.5
2017-Aug-16 22:30N 33°44' W 118°17'2 3.3
2017-Aug-16 22:00N 33°46' W 118°17'1 2.6
2017-Aug-16 21:30N 33°45' W 118°17'2 4.5
2017-Aug-16 20:59N 33°43' W 118°15'1 2.9
2017-Aug-16 20:30N 33°44' W 118°16'0 0.0
2017-Aug-16 20:00N 33°44' W 118°16'0 0.0
2017-Aug-16 19:30N 33°44' W 118°16'0 0.2
2017-Aug-16 19:00N 33°44' W 118°16'2 3.7
2017-Aug-16 18:19N 33°42' W 118°14'2 7.7
2017-Aug-16 18:00N 33°44' W 118°16'3 5.8
2017-Aug-16 17:30N 33°46' W 118°13'1 1.5
2017-Aug-16 17:00N 33°46' W 118°13'0 0.1
2017-Aug-16 16:30N 33°46' W 118°13'1 1.1
2017-Aug-16 15:59N 33°46' W 118°13'2 4.5
2017-Aug-16 15:30N 33°44' W 118°12'2 4.5
2017-Aug-16 14:59N 33°46' W 118°13'0 0.9
2017-Aug-16 14:27N 33°46' W 118°14'2 5.3
2017-Aug-16 14:00N 33°45' W 118°17'1 1.5
2017-Aug-16 13:30N 33°45' W 118°17'2 4.7
2017-Aug-16 13:00N 33°42' W 118°15'1 2.9
2017-Aug-16 12:30N 33°44' W 118°15'0 0.5
2017-Aug-16 12:01N 33°44' W 118°15'1 2.0
2017-Aug-16 11:30N 33°43' W 118°16'3 5.9
2017-Aug-16 11:00N 33°45' W 118°13'1 1.2
2017-Aug-16 10:29N 33°46' W 118°13'2 4.6
2017-Aug-16 09:58N 33°43' W 118°14'2 3.4
2017-Aug-16 09:30N 33°44' W 118°16'0 0.0
2017-Aug-16 09:00N 33°44' W 118°16'0 0.0
2017-Aug-16 08:30N 33°44' W 118°16'0 0.0
2017-Aug-16 07:59N 33°44' W 118°16'0 0.0
2017-Aug-16 07:30N 33°44' W 118°16'0 0.0
2017-Aug-16 07:00N 33°44' W 118°16'0 0.0
2017-Aug-16 06:29N 33°44' W 118°16'0 0.0
2017-Aug-16 06:00N 33°44' W 118°16'0 0.0
2017-Aug-16 05:30N 33°44' W 118°16'0 0.0
2017-Aug-16 05:00N 33°44' W 118°16'0 0.0
2017-Aug-16 04:28N 33°44' W 118°16'0 0.0
2017-Aug-16 04:00N 33°44' W 118°16'0 0.0
2017-Aug-16 03:30N 33°44' W 118°16'0 0.0
2017-Aug-16 02:59N 33°44' W 118°16'0 0.0
2017-Aug-16 02:29N 33°44' W 118°16'2 3.5
2017-Aug-16 02:01N 33°43' W 118°14'1 2.6
2017-Aug-16 01:31N 33°44' W 118°13'3 5.1
2017-Aug-16 01:01N 33°44' W 118°16'0 0.1
2017-Aug-16 00:30N 33°44' W 118°16'0 0.0
2017-Aug-16 00:00N 33°44' W 118°16'0 0.0
2017-Aug-15 23:30N 33°44' W 118°16'0 0.0
2017-Aug-15 22:59N 33°44' W 118°16'0 0.0
2017-Aug-15 22:29N 33°44' W 118°16'3 5.8
2017-Aug-15 22:01N 33°44' W 118°12'1 3.0
2017-Aug-15 21:30N 33°44' W 118°11'4 8.0
2017-Aug-15 21:00N 33°43' W 118°15'1 2.1
2017-Aug-15 20:30N 33°44' W 118°16'0 0.1
2017-Aug-15 20:00N 33°44' W 118°16'0 0.0
2017-Aug-15 19:30N 33°44' W 118°16'0 0.0
2017-Aug-15 19:00N 33°44' W 118°16'0 0.0
2017-Aug-15 18:30N 33°44' W 118°16'0 0.0
2017-Aug-15 18:00N 33°44' W 118°16'0 0.0
2017-Aug-15 17:30N 33°44' W 118°16'0 0.0
2017-Aug-15 17:00N 33°44' W 118°16'0 0.0
2017-Aug-15 16:31N 33°44' W 118°16'0 0.0
2017-Aug-15 15:59N 33°44' W 118°16'0 0.0
2017-Aug-15 15:29N 33°44' W 118°16'0 0.0
2017-Aug-15 14:58N 33°44' W 118°16'0 0.0
2017-Aug-15 14:28N 33°44' W 118°16'0 0.0
2017-Aug-15 13:59N 33°44' W 118°16'0 0.0
2017-Aug-15 13:28N 33°44' W 118°16'0 0.0
2017-Aug-15 13:00N 33°44' W 118°16'1 1.1
2017-Aug-15 12:30N 33°43' W 118°16'1 1.6
2017-Aug-15 12:00N 33°44' W 118°15'0 0.6
2017-Aug-15 11:30N 33°44' W 118°15'0 0.1
2017-Aug-15 10:57N 33°44' W 118°15'1 1.7
2017-Aug-15 10:29N 33°44' W 118°16'0 0.0
2017-Aug-15 10:00N 33°44' W 118°16'0 0.0
2017-Aug-15 09:30N 33°44' W 118°16'0 0.0
2017-Aug-15 09:00N 33°44' W 118°16'0 0.0
2017-Aug-15 08:30N 33°44' W 118°16'0 0.0
2017-Aug-15 08:00N 33°44' W 118°16'0 0.0
2017-Aug-15 07:30N 33°44' W 118°16'0 0.0
2017-Aug-15 06:59N 33°44' W 118°16'0 0.0
2017-Aug-15 06:30N 33°44' W 118°16'0 0.0
2017-Aug-15 05:59N 33°44' W 118°16'0 0.0
2017-Aug-15 05:30N 33°44' W 118°16'0 0.0
2017-Aug-15 04:58N 33°44' W 118°16'0 0.0
2017-Aug-15 04:29N 33°44' W 118°16'0 0.0
2017-Aug-15 04:00N 33°44' W 118°16'0 0.0
2017-Aug-15 03:30N 33°44' W 118°16'0 0.0
2017-Aug-15 03:00N 33°44' W 118°16'0 0.0
2017-Aug-15 02:30N 33°44' W 118°16'0 0.0
2017-Aug-15 02:00N 33°44' W 118°16'2 4.0
2017-Aug-15 01:30N 33°44' W 118°13'2 3.9
2017-Aug-15 01:00N 33°44' W 118°16'0 0.0
2017-Aug-15 00:30N 33°44' W 118°16'1 1.3
2017-Aug-15 00:00N 33°44' W 118°16'0 0.0
2017-Aug-14 23:30N 33°44' W 118°16'0 0.0
2017-Aug-14 23:01N 33°44' W 118°16'0 0.1
2017-Aug-14 22:30N 33°44' W 118°16'1 1.2
2017-Aug-14 22:00N 33°44' W 118°16'0 0.0
2017-Aug-14 21:30N 33°44' W 118°16'0 0.0
2017-Aug-14 21:00N 33°44' W 118°16'0 0.0
2017-Aug-14 20:30N 33°44' W 118°16'0 0.0
2017-Aug-14 20:00N 33°44' W 118°16'0 0.0
2017-Aug-14 19:30N 33°44' W 118°16'0 0.0
2017-Aug-14 19:00N 33°44' W 118°16'0 0.0
2017-Aug-14 18:30N 33°44' W 118°16'0 0.0
2017-Aug-14 17:59N 33°44' W 118°16'0 0.0
2017-Aug-14 17:30N 33°44' W 118°16'0 0.0
2017-Aug-14 16:59N 33°44' W 118°16'0 0.0
2017-Aug-14 16:29N 33°44' W 118°16'2 3.9
2017-Aug-14 16:00N 33°43' W 118°14'5 9.4
2017-Aug-14 15:31N 33°44' W 118°08'2 3.6
2017-Aug-14 14:57N 33°44' W 118°06'2 2.9
2017-Aug-14 14:25N 33°43' W 118°07'1 2.7
2017-Aug-14 14:00N 33°44' W 118°06'0 0.2
2017-Aug-14 13:31N 33°44' W 118°06'5 9.5
2017-Aug-14 13:00N 33°44' W 118°12'3 6.1
2017-Aug-14 12:29N 33°44' W 118°16'0 0.4
2017-Aug-14 12:00N 33°44' W 118°15'0 0.4
2017-Aug-14 11:30N 33°44' W 118°16'1 2.4
2017-Aug-14 11:00N 33°43' W 118°15'1 2.7
2017-Aug-14 10:30N 33°44' W 118°16'0 0.0
2017-Aug-14 10:01N 33°44' W 118°16'0 0.0
2017-Aug-14 09:29N 33°44' W 118°16'0 0.0
2017-Aug-14 09:00N 33°44' W 118°16'0 0.0
2017-Aug-14 08:30N 33°44' W 118°16'0 0.0
2017-Aug-14 07:59N 33°44' W 118°16'0 0.0
2017-Aug-14 07:30N 33°44' W 118°16'0 0.0
2017-Aug-14 07:00N 33°44' W 118°16'0 0.0
2017-Aug-14 06:30N 33°44' W 118°16'0 0.0
2017-Aug-14 06:00N 33°44' W 118°16'0 0.0
2017-Aug-14 05:30N 33°44' W 118°16'0 0.0
2017-Aug-14 05:01N 33°44' W 118°16'0 0.0
2017-Aug-14 04:31N 33°44' W 118°16'0 0.0
2017-Aug-14 03:59N 33°44' W 118°16'0 0.0
2017-Aug-14 03:30N 33°44' W 118°16'0 0.0
2017-Aug-14 03:00N 33°44' W 118°16'0 0.0
2017-Aug-14 02:31N 33°44' W 118°16'0 0.0
2017-Aug-14 02:01N 33°44' W 118°16'0 0.0
2017-Aug-14 01:30N 33°44' W 118°16'0 0.0
2017-Aug-14 01:01N 33°44' W 118°16'0 0.0
2017-Aug-14 00:30N 33°44' W 118°16'0 0.0
2017-Aug-14 00:00N 33°44' W 118°16'0 0.0
2017-Aug-13 23:30N 33°44' W 118°16'0 0.0
2017-Aug-13 23:01N 33°44' W 118°16'0 0.0
2017-Aug-13 22:30N 33°44' W 118°16'0 0.9
2017-Aug-13 22:00N 33°44' W 118°15'0 1.0
2017-Aug-13 21:30N 33°44' W 118°16'1 2.5
2017-Aug-13 21:01N 33°43' W 118°15'1 2.8
2017-Aug-13 20:30N 33°44' W 118°16'0 0.0
2017-Aug-13 20:00N 33°44' W 118°16'0 0.0
2017-Aug-13 19:30N 33°44' W 118°16'0 0.0
2017-Aug-13 19:00N 33°44' W 118°16'0 0.0
2017-Aug-13 18:30N 33°44' W 118°16'0 0.0
2017-Aug-13 18:00N 33°44' W 118°16'0 0.0
2017-Aug-13 17:30N 33°44' W 118°16'0 0.0
2017-Aug-13 17:00N 33°44' W 118°16'0 0.0
2017-Aug-13 16:31N 33°44' W 118°16'0 0.0
2017-Aug-13 15:58N 33°44' W 118°16'0 0.0
2017-Aug-13 15:31N 33°44' W 118°16'0 0.0
2017-Aug-13 15:00N 33°44' W 118°16'3 4.6
2017-Aug-13 14:24N 33°46' W 118°13'1 1.3
2017-Aug-13 14:00N 33°46' W 118°13'1 2.3
2017-Aug-13 13:30N 33°45' W 118°13'2 3.4
2017-Aug-13 12:59N 33°44' W 118°12'2 2.7
2017-Aug-13 12:24N 33°44' W 118°14'2 3.6
2017-Aug-13 11:57N 33°44' W 118°16'0 0.0
2017-Aug-13 11:25N 33°44' W 118°16'0 0.0
2017-Aug-13 10:59N 33°44' W 118°16'0 0.0
2017-Aug-13 10:30N 33°44' W 118°16'0 0.0
2017-Aug-13 10:00N 33°44' W 118°16'0 0.0
2017-Aug-13 09:30N 33°44' W 118°16'0 0.0
2017-Aug-13 09:00N 33°44' W 118°16'0 0.0
2017-Aug-13 08:30N 33°44' W 118°16'0 0.0
2017-Aug-13 08:00N 33°44' W 118°16'0 0.0
2017-Aug-13 07:30N 33°44' W 118°16'0 0.0
2017-Aug-13 07:00N 33°44' W 118°16'0 0.0
2017-Aug-13 06:30N 33°44' W 118°16'0 0.0
2017-Aug-13 06:01N 33°44' W 118°16'0 0.0
2017-Aug-13 05:30N 33°44' W 118°16'0 0.0
2017-Aug-13 05:00N 33°44' W 118°16'0 0.0
2017-Aug-13 04:30N 33°44' W 118°16'0 0.0
2017-Aug-13 04:01N 33°44' W 118°16'0 0.0
2017-Aug-13 03:30N 33°44' W 118°16'0 0.0
2017-Aug-13 03:00N 33°44' W 118°16'0 0.0
2017-Aug-13 02:31N 33°44' W 118°16'0 0.0
2017-Aug-13 02:00N 33°44' W 118°16'0 0.0
2017-Aug-13 01:30N 33°44' W 118°16'0 0.0
2017-Aug-13 01:00N 33°44' W 118°16'0 0.0
2017-Aug-13 00:30N 33°44' W 118°16'0 0.0
2017-Aug-13 00:01N 33°44' W 118°16'0 0.0
2017-Aug-12 23:30N 33°44' W 118°16'0 0.0
2017-Aug-12 23:00N 33°44' W 118°16'0 0.0
2017-Aug-12 22:30N 33°44' W 118°16'0 0.0
2017-Aug-12 22:00N 33°44' W 118°16'0 0.0
2017-Aug-12 21:30N 33°44' W 118°16'0 0.0
2017-Aug-12 21:00N 33°44' W 118°16'0 0.0
2017-Aug-12 20:30N 33°44' W 118°16'0 0.0
2017-Aug-12 20:00N 33°44' W 118°16'0 0.0
2017-Aug-12 19:30N 33°44' W 118°16'0 0.0
2017-Aug-12 19:00N 33°44' W 118°16'0 0.0
2017-Aug-12 18:30N 33°44' W 118°16'0 0.0
2017-Aug-12 18:00N 33°44' W 118°16'3 5.3
2017-Aug-12 17:30N 33°46' W 118°13'1 2.0
2017-Aug-12 17:00N 33°46' W 118°13'0 0.3
2017-Aug-12 16:31N 33°46' W 118°13'2 2.8
2017-Aug-12 15:52N 33°45' W 118°13'2 4.1
2017-Aug-12 15:30N 33°43' W 118°14'2 3.8
2017-Aug-12 15:01N 33°44' W 118°12'1 2.4
2017-Aug-12 14:30N 33°45' W 118°11'1 2.6
2017-Aug-12 14:01N 33°44' W 118°12'1 1.7
2017-Aug-12 13:21N 33°45' W 118°12'0 0.0
2017-Aug-12 12:58N 33°45' W 118°12'0 0.0
2017-Aug-12 12:30N 33°45' W 118°12'1 1.3
2017-Aug-12 12:00N 33°44' W 118°12'2 3.9
2017-Aug-12 11:31N 33°46' W 118°13'0 0.5
2017-Aug-12 10:59N 33°46' W 118°13'2 4.3
2017-Aug-12 10:31N 33°44' W 118°13'2 4.0
2017-Aug-12 10:00N 33°44' W 118°16'0 0.0
2017-Aug-12 09:31N 33°44' W 118°16'0 0.0
2017-Aug-12 09:00N 33°44' W 118°16'0 0.0
2017-Aug-12 08:31N 33°44' W 118°16'0 0.0
2017-Aug-12 08:01N 33°44' W 118°16'0 0.0
2017-Aug-12 07:30N 33°44' W 118°16'0 0.0
2017-Aug-12 07:00N 33°44' W 118°16'0 0.0
2017-Aug-12 06:31N 33°44' W 118°16'0 0.0
2017-Aug-12 06:01N 33°44' W 118°16'0 0.0
2017-Aug-12 05:30N 33°44' W 118°16'0 0.0
2017-Aug-12 05:01N 33°44' W 118°16'0 0.0
2017-Aug-12 04:31N 33°44' W 118°16'0 0.0
2017-Aug-12 04:00N 33°44' W 118°16'0 0.0
2017-Aug-12 03:30N 33°44' W 118°16'0 0.0
2017-Aug-12 03:01N 33°44' W 118°16'0 0.0
2017-Aug-12 02:31N 33°44' W 118°16'0 0.0
2017-Aug-12 02:00N 33°44' W 118°16'0 0.0
2017-Aug-12 01:31N 33°44' W 118°16'0 0.0
2017-Aug-12 01:00N 33°44' W 118°16'0 0.0
2017-Aug-12 00:31N 33°44' W 118°16'0 0.0
2017-Aug-12 00:00N 33°44' W 118°16'0 0.0
2017-Aug-11 23:30N 33°44' W 118°16'0 0.0
2017-Aug-11 23:01N 33°44' W 118°16'0 0.0
2017-Aug-11 22:31N 33°44' W 118°16'0 0.0
2017-Aug-11 22:00N 33°44' W 118°16'0 0.0
2017-Aug-11 21:30N 33°44' W 118°16'0 0.0
2017-Aug-11 21:01N 33°44' W 118°16'0 0.0
2017-Aug-11 20:31N 33°44' W 118°16'0 0.0
2017-Aug-11 20:00N 33°44' W 118°16'0 0.0
2017-Aug-11 19:30N 33°44' W 118°16'0 0.0
2017-Aug-11 19:00N 33°44' W 118°16'0 0.0
2017-Aug-11 18:30N 33°44' W 118°16'0 0.0
2017-Aug-11 18:00N 33°44' W 118°16'1 1.5
2017-Aug-11 17:30N 33°44' W 118°17'1 1.5
2017-Aug-11 17:01N 33°45' W 118°16'1 1.6
2017-Aug-11 16:29N 33°46' W 118°16'1 1.1
2017-Aug-11 16:00N 33°45' W 118°16'2 4.4
2017-Aug-11 15:30N 33°43' W 118°16'1 2.1
2017-Aug-11 15:00N 33°43' W 118°15'1 2.8
2017-Aug-11 14:31N 33°44' W 118°16'1 0.7
2017-Aug-11 13:29N 33°44' W 118°17'1 2.3
2017-Aug-11 12:59N 33°45' W 118°16'1 2.8
2017-Aug-11 12:30N 33°44' W 118°16'2 3.5
2017-Aug-11 12:00N 33°43' W 118°15'0 0.3
2017-Aug-11 11:31N 33°43' W 118°15'0 0.2
2017-Aug-11 11:00N 33°43' W 118°15'1 1.9
2017-Aug-11 10:31N 33°43' W 118°16'1 2.3
2017-Aug-11 10:00N 33°44' W 118°15'1 1.0
2017-Aug-11 09:31N 33°44' W 118°16'0 0.0
2017-Aug-11 09:00N 33°44' W 118°16'0 0.0
2017-Aug-11 08:30N 33°44' W 118°16'0 0.0
2017-Aug-11 08:01N 33°44' W 118°16'0 0.0
2017-Aug-11 07:30N 33°44' W 118°16'0 0.0
2017-Aug-11 07:00N 33°44' W 118°16'0 0.0
2017-Aug-11 06:31N 33°44' W 118°16'0 0.0
2017-Aug-11 06:00N 33°44' W 118°16'0 0.0
2017-Aug-11 05:31N 33°44' W 118°16'0 0.0
2017-Aug-11 05:00N 33°44' W 118°16'0 0.0
2017-Aug-11 04:30N 33°44' W 118°16'0 0.0
2017-Aug-11 04:00N 33°44' W 118°16'0 0.0
2017-Aug-11 03:30N 33°44' W 118°16'0 0.0
2017-Aug-11 03:01N 33°44' W 118°16'0 0.0
2017-Aug-11 02:31N 33°44' W 118°16'2 3.6
2017-Aug-11 02:00N 33°46' W 118°17'1 2.1
2017-Aug-11 01:30N 33°44' W 118°17'1 1.9
2017-Aug-11 01:00N 33°44' W 118°16'0 0.0
2017-Aug-11 00:31N 33°44' W 118°16'1 1.5
2017-Aug-11 00:01N 33°43' W 118°16'1 1.6
2017-Aug-10 23:31N 33°44' W 118°15'0 0.0
2017-Aug-10 23:00N 33°44' W 118°15'0 0.2
2017-Aug-10 22:30N 33°44' W 118°15'0 0.1
2017-Aug-10 22:00N 33°44' W 118°15'0 0.4
2017-Aug-10 21:30N 33°44' W 118°16'0 0.0
2017-Aug-10 21:01N 33°44' W 118°16'0 0.0
2017-Aug-10 20:30N 33°44' W 118°16'0 0.0
2017-Aug-10 20:01N 33°44' W 118°16'0 0.0
2017-Aug-10 19:31N 33°44' W 118°16'0 0.0
2017-Aug-10 19:00N 33°44' W 118°16'0 0.0
2017-Aug-10 18:30N 33°44' W 118°16'0 0.0
2017-Aug-10 18:00N 33°44' W 118°16'0 0.0
2017-Aug-10 17:30N 33°44' W 118°16'0 0.0
2017-Aug-10 17:00N 33°44' W 118°16'0 0.0
2017-Aug-10 16:30N 33°44' W 118°16'1 1.4
2017-Aug-10 16:00N 33°44' W 118°17'2 3.6
2017-Aug-10 15:31N 33°46' W 118°16'0 0.6
2017-Aug-10 15:01N 33°45' W 118°16'3 5.4
2017-Aug-10 14:30N 33°43' W 118°14'2 1.7
2017-Aug-10 13:30N 33°45' W 118°13'2 3.3
2017-Aug-10 13:01N 33°44' W 118°11'1 1.6
2017-Aug-10 12:30N 33°44' W 118°12'3 6.0
2017-Aug-10 12:00N 33°44' W 118°16'0 0.0
2017-Aug-10 11:30N 33°44' W 118°16'0 0.0
2017-Aug-10 11:01N 33°44' W 118°16'0 0.0
2017-Aug-10 10:31N 33°44' W 118°16'0 0.0
2017-Aug-10 10:00N 33°44' W 118°16'0 0.0
2017-Aug-10 09:30N 33°44' W 118°16'0 0.0
2017-Aug-10 09:00N 33°44' W 118°16'0 0.0
2017-Aug-10 08:31N 33°44' W 118°16'0 0.0
2017-Aug-10 08:01N 33°44' W 118°16'0 0.0
2017-Aug-10 07:31N 33°44' W 118°16'0 0.0
2017-Aug-10 07:01N 33°44' W 118°16'0 0.0
2017-Aug-10 06:30N 33°44' W 118°16'0 0.0
2017-Aug-10 06:01N 33°44' W 118°16'0 0.0
2017-Aug-10 05:30N 33°44' W 118°16'0 0.0
2017-Aug-10 05:00N 33°44' W 118°16'0 0.0
2017-Aug-10 04:29N 33°44' W 118°16'0 0.0
2017-Aug-10 04:01N 33°44' W 118°16'0 0.0
2017-Aug-10 03:31N 33°44' W 118°16'0 0.0
2017-Aug-10 03:00N 33°44' W 118°16'0 0.0
2017-Aug-10 02:30N 33°44' W 118°16'0 0.0
2017-Aug-10 02:01N 33°44' W 118°16'0 0.0
2017-Aug-10 01:30N 33°44' W 118°16'0 0.0
2017-Aug-10 01:00N 33°44' W 118°16'0 0.0
2017-Aug-10 00:30N 33°44' W 118°16'0 0.0
2017-Aug-10 00:01N 33°44' W 118°16'0 0.0
2017-Aug-09 23:30N 33°44' W 118°16'0 0.0
2017-Aug-09 23:00N 33°44' W 118°16'0 0.0
2017-Aug-09 22:30N 33°44' W 118°16'0 0.0
2017-Aug-09 22:01N 33°44' W 118°16'0 0.0
2017-Aug-09 21:30N 33°44' W 118°16'0 0.0
2017-Aug-09 21:00N 33°44' W 118°16'0 0.0
2017-Aug-09 20:31N 33°44' W 118°16'0 0.0
2017-Aug-09 20:00N 33°44' W 118°16'0 0.0
2017-Aug-09 19:30N 33°44' W 118°16'0 0.0
2017-Aug-09 19:00N 33°44' W 118°16'0 0.0
2017-Aug-09 18:30N 33°44' W 118°16'0 0.0
2017-Aug-09 18:00N 33°44' W 118°16'0 0.0
2017-Aug-09 17:30N 33°44' W 118°16'0 0.0
2017-Aug-09 17:00N 33°44' W 118°16'0 0.0
2017-Aug-09 16:30N 33°44' W 118°16'0 0.0
2017-Aug-09 16:00N 33°44' W 118°16'0 0.0
2017-Aug-09 15:31N 33°44' W 118°16'0 0.0
2017-Aug-09 15:00N 33°44' W 118°16'0 0.0
2017-Aug-09 14:30N 33°44' W 118°16'0 0.0
2017-Aug-09 14:00N 33°44' W 118°16'0 0.0
2017-Aug-09 13:30N 33°44' W 118°16'0 0.0
2017-Aug-09 13:00N 33°44' W 118°16'0 0.0
2017-Aug-09 12:30N 33°44' W 118°16'0 0.0
2017-Aug-09 11:59N 33°44' W 118°16'0 0.0
2017-Aug-09 11:30N 33°44' W 118°16'0 0.0
2017-Aug-09 11:01N 33°44' W 118°16'0 0.0
2017-Aug-09 10:31N 33°44' W 118°16'0 0.0
2017-Aug-09 10:01N 33°44' W 118°16'0 0.0
2017-Aug-09 09:30N 33°44' W 118°16'0 0.0
2017-Aug-09 09:01N 33°44' W 118°16'0 0.0
2017-Aug-09 08:30N 33°44' W 118°16'0 0.0
2017-Aug-09 08:01N 33°44' W 118°16'0 0.0
2017-Aug-09 07:30N 33°44' W 118°16'0 0.0
2017-Aug-09 07:00N 33°44' W 118°16'0 0.0
2017-Aug-09 06:30N 33°44' W 118°16'0 0.0
2017-Aug-09 06:01N 33°44' W 118°16'0 0.0
2017-Aug-09 05:31N 33°44' W 118°16'0 0.0
2017-Aug-09 05:00N 33°44' W 118°16'0 0.0
2017-Aug-09 04:30N 33°44' W 118°16'0 0.0
2017-Aug-09 04:00N 33°44' W 118°16'0 0.0
2017-Aug-09 03:31N 33°44' W 118°16'0 0.0
2017-Aug-09 03:00N 33°44' W 118°16'0 0.0
2017-Aug-09 02:31N 33°44' W 118°16'0 0.0
2017-Aug-09 02:01N 33°44' W 118°16'0 0.0
2017-Aug-09 01:31N 33°44' W 118°16'0 0.0
2017-Aug-09 01:00N 33°44' W 118°16'0 0.0
2017-Aug-09 00:30N 33°44' W 118°16'0 0.0
2017-Aug-09 00:00N 33°44' W 118°16'0 0.0
2017-Aug-08 23:31N 33°44' W 118°16'0 0.0
2017-Aug-08 23:00N 33°44' W 118°16'0 0.0
2017-Aug-08 22:31N 33°44' W 118°16'0 0.0
2017-Aug-08 22:00N 33°44' W 118°16'0 0.0
2017-Aug-08 21:30N 33°44' W 118°16'0 0.0
2017-Aug-08 21:00N 33°44' W 118°16'0 0.0
2017-Aug-08 20:31N 33°44' W 118°16'0 0.0
2017-Aug-08 20:00N 33°44' W 118°16'0 0.0
2017-Aug-08 19:30N 33°44' W 118°16'0 0.0
2017-Aug-08 19:00N 33°44' W 118°16'1 2.1
2017-Aug-08 18:30N 33°43' W 118°15'3 5.9
2017-Aug-08 18:00N 33°45' W 118°13'0 0.2
2017-Aug-08 17:30N 33°45' W 118°13'0 0.1
2017-Aug-08 16:56N 33°45' W 118°13'1 1.3
2017-Aug-08 16:30N 33°45' W 118°13'2 4.9
2017-Aug-08 16:00N 33°44' W 118°16'0 0.0
2017-Aug-08 15:30N 33°44' W 118°16'0 0.0
2017-Aug-08 15:00N 33°44' W 118°16'0 0.0
2017-Aug-08 14:31N 33°44' W 118°16'0 0.0
2017-Aug-08 14:00N 33°44' W 118°16'0 0.0
2017-Aug-08 13:30N 33°44' W 118°16'0 0.0
2017-Aug-08 13:00N 33°44' W 118°16'3 5.0
2017-Aug-08 12:30N 33°45' W 118°13'1 1.3
2017-Aug-08 12:00N 33°46' W 118°13'2 4.2
2017-Aug-08 11:30N 33°44' W 118°12'0 0.5
2017-Aug-08 11:01N 33°44' W 118°12'3 6.6
2017-Aug-08 10:30N 33°44' W 118°16'0 0.5
2017-Aug-08 10:00N 33°44' W 118°16'0 0.0
2017-Aug-08 09:30N 33°44' W 118°16'0 0.0
2017-Aug-08 09:00N 33°44' W 118°16'0 0.0
2017-Aug-08 08:30N 33°44' W 118°16'0 0.0
2017-Aug-08 08:00N 33°44' W 118°16'0 0.0
2017-Aug-08 07:31N 33°44' W 118°16'0 0.0
2017-Aug-08 07:00N 33°44' W 118°16'0 0.0
2017-Aug-08 06:30N 33°44' W 118°16'0 0.0
2017-Aug-08 06:00N 33°44' W 118°16'0 0.0
2017-Aug-08 05:30N 33°44' W 118°16'0 0.0
2017-Aug-08 05:00N 33°44' W 118°16'0 0.0
2017-Aug-08 04:30N 33°44' W 118°16'0 0.0
2017-Aug-08 04:00N 33°44' W 118°16'0 0.0
2017-Aug-08 03:31N 33°44' W 118°16'0 0.0
2017-Aug-08 03:00N 33°44' W 118°16'0 0.0
2017-Aug-08 02:31N 33°44' W 118°16'0 0.0
2017-Aug-08 02:00N 33°44' W 118°16'0 0.0
2017-Aug-08 01:30N 33°44' W 118°16'3 5.0
2017-Aug-08 01:00N 33°45' W 118°13'0 0.4
2017-Aug-08 00:31N 33°45' W 118°13'0 0.0
2017-Aug-08 00:00N 33°45' W 118°13'0 0.0
2017-Aug-07 23:30N 33°45' W 118°13'0 0.0
2017-Aug-07 23:00N 33°45' W 118°13'1 1.9
2017-Aug-07 22:30N 33°44' W 118°13'2 3.3
2017-Aug-07 22:00N 33°43' W 118°11'0 0.3
2017-Aug-07 21:30N 33°43' W 118°11'3 6.2
2017-Aug-07 21:00N 33°43' W 118°15'  
Track history (hours):
 
Tides and Currents Weather Stations Pressure Air Temp Water Temp Dewpoint Dewpoint Depression Visibility Wind Speed Wind Dir Waves Ship Positions

John Quigg

Owner: Harley Marine Services, Inc, Seattle, WA. More information available from US FCC via Universal Licensing System and Coast Guard Vessel Documentation Center.

Last reported at 2017-Aug-17 21:00 UTC. Time now 2017-Aug-17 21:13 UTC.
Position N 33°44' W 118°16'.

Length 27 m.

MMSI: 365934954.

Date/timePositionNaut miles runAvg speedWind from/ knotsBaromVisibWave heightAir tempDewpointWater temp
2017-Aug-17 21:00N 33°44' W 118°16'0 0.0
2017-Aug-17 20:30N 33°44' W 118°16'0 0.0
2017-Aug-17 20:00N 33°44' W 118°16'0 0.0
2017-Aug-17 19:30N 33°44' W 118°16'0 0.0
2017-Aug-17 18:59N 33°44' W 118°16'0 0.0
2017-Aug-17 18:30N 33°44' W 118°16'0 0.0
2017-Aug-17 18:00N 33°44' W 118°16'0 0.0
2017-Aug-17 17:30N 33°44' W 118°16'0 0.0
2017-Aug-17 17:00N 33°44' W 118°16'0 0.0
2017-Aug-17 16:30N 33°44' W 118°16'0 0.0
2017-Aug-17 16:01N 33°44' W 118°16'0 0.0
2017-Aug-17 15:30N 33°44' W 118°16'0 0.0
2017-Aug-17 15:00N 33°44' W 118°16'2 4.0
2017-Aug-17 14:28N 33°44' W 118°13'1 1.8
2017-Aug-17 14:00N 33°45' W 118°14'1 2.2
2017-Aug-17 13:28N 33°45' W 118°12'1 1.4
2017-Aug-17 12:59N 33°46' W 118°13'1 3.0
2017-Aug-17 12:30N 33°44' W 118°12'0 0.4
2017-Aug-17 11:59N 33°44' W 118°13'1 1.6
2017-Aug-17 11:26N 33°45' W 118°13'0 1.1
2017-Aug-17 11:01N 33°46' W 118°13'2 4.0
2017-Aug-17 10:30N 33°44' W 118°13'2 3.5
2017-Aug-17 09:59N 33°44' W 118°16'0 0.0
2017-Aug-17 09:29N 33°44' W 118°16'0 0.0
2017-Aug-17 09:00N 33°44' W 118°16'0 0.0
2017-Aug-17 08:30N 33°44' W 118°16'0 0.0
2017-Aug-17 08:00N 33°44' W 118°16'0 0.0
2017-Aug-17 07:29N 33°44' W 118°16'0 0.0
2017-Aug-17 07:00N 33°44' W 118°16'0 0.0
2017-Aug-17 06:29N 33°44' W 118°16'0 0.0
2017-Aug-17 05:58N 33°44' W 118°16'0 0.0
2017-Aug-17 05:30N 33°44' W 118°16'0 0.0
2017-Aug-17 04:59N 33°44' W 118°16'0 0.0
2017-Aug-17 04:28N 33°44' W 118°16'0 0.0
2017-Aug-17 04:00N 33°44' W 118°16'0 0.0
2017-Aug-17 03:31N 33°44' W 118°16'0 0.0
2017-Aug-17 02:58N 33°44' W 118°16'0 0.0
2017-Aug-17 02:31N 33°44' W 118°16'2 3.0
2017-Aug-17 01:59N 33°45' W 118°16'1 1.2
2017-Aug-17 01:30N 33°46' W 118°15'2 3.2
2017-Aug-17 01:00N 33°45' W 118°17'3 5.3
2017-Aug-17 00:30N 33°43' W 118°14'2 3.2
2017-Aug-16 23:52N 33°45' W 118°13'0 0.5
2017-Aug-16 23:30N 33°45' W 118°13'2 3.0
2017-Aug-16 23:00N 33°44' W 118°13'3 5.5
2017-Aug-16 22:30N 33°44' W 118°17'2 3.3
2017-Aug-16 22:00N 33°46' W 118°17'1 2.6
2017-Aug-16 21:30N 33°45' W 118°17'2 4.5
2017-Aug-16 20:59N 33°43' W 118°15'1 2.9
2017-Aug-16 20:30N 33°44' W 118°16'0 0.0
2017-Aug-16 20:00N 33°44' W 118°16'0 0.0
2017-Aug-16 19:30N 33°44' W 118°16'0 0.2
2017-Aug-16 19:00N 33°44' W 118°16'2 3.7
2017-Aug-16 18:19N 33°42' W 118°14'2 7.7
2017-Aug-16 18:00N 33°44' W 118°16'3 5.8
2017-Aug-16 17:30N 33°46' W 118°13'1 1.5
2017-Aug-16 17:00N 33°46' W 118°13'0 0.1
2017-Aug-16 16:30N 33°46' W 118°13'1 1.1
2017-Aug-16 15:59N 33°46' W 118°13'2 4.5
2017-Aug-16 15:30N 33°44' W 118°12'2 4.5
2017-Aug-16 14:59N 33°46' W 118°13'0 0.9
2017-Aug-16 14:27N 33°46' W 118°14'2 5.3
2017-Aug-16 14:00N 33°45' W 118°17'1 1.5
2017-Aug-16 13:30N 33°45' W 118°17'2 4.7
2017-Aug-16 13:00N 33°42' W 118°15'1 2.9
2017-Aug-16 12:30N 33°44' W 118°15'0 0.5
2017-Aug-16 12:01N 33°44' W 118°15'1 2.0
2017-Aug-16 11:30N 33°43' W 118°16'3 5.9
2017-Aug-16 11:00N 33°45' W 118°13'1 1.2
2017-Aug-16 10:29N 33°46' W 118°13'2 4.6
2017-Aug-16 09:58N 33°43' W 118°14'2 3.4
2017-Aug-16 09:30N 33°44' W 118°16'0 0.0
2017-Aug-16 09:00N 33°44' W 118°16'0 0.0
2017-Aug-16 08:30N 33°44' W 118°16'0 0.0
2017-Aug-16 07:59N 33°44' W 118°16'0 0.0
2017-Aug-16 07:30N 33°44' W 118°16'0 0.0
2017-Aug-16 07:00N 33°44' W 118°16'0 0.0
2017-Aug-16 06:29N 33°44' W 118°16'0 0.0
2017-Aug-16 06:00N 33°44' W 118°16'0 0.0
2017-Aug-16 05:30N 33°44' W 118°16'0 0.0
2017-Aug-16 05:00N 33°44' W 118°16'0 0.0
2017-Aug-16 04:28N 33°44' W 118°16'0 0.0
2017-Aug-16 04:00N 33°44' W 118°16'0 0.0
2017-Aug-16 03:30N 33°44' W 118°16'0 0.0
2017-Aug-16 02:59N 33°44' W 118°16'0 0.0
2017-Aug-16 02:29N 33°44' W 118°16'2 3.5
2017-Aug-16 02:01N 33°43' W 118°14'1 2.6
2017-Aug-16 01:31N 33°44' W 118°13'3 5.1
2017-Aug-16 01:01N 33°44' W 118°16'0 0.1
2017-Aug-16 00:30N 33°44' W 118°16'0 0.0
2017-Aug-16 00:00N 33°44' W 118°16'0 0.0
2017-Aug-15 23:30N 33°44' W 118°16'0 0.0
2017-Aug-15 22:59N 33°44' W 118°16'0 0.0
2017-Aug-15 22:29N 33°44' W 118°16'3 5.8
2017-Aug-15 22:01N 33°44' W 118°12'1 3.0
2017-Aug-15 21:30N 33°44' W 118°11'4 8.0
2017-Aug-15 21:00N 33°43' W 118°15'1 2.1
2017-Aug-15 20:30N 33°44' W 118°16'0 0.1
2017-Aug-15 20:00N 33°44' W 118°16'0 0.0
2017-Aug-15 19:30N 33°44' W 118°16'0 0.0
2017-Aug-15 19:00N 33°44' W 118°16'0 0.0
2017-Aug-15 18:30N 33°44' W 118°16'0 0.0
2017-Aug-15 18:00N 33°44' W 118°16'0 0.0
2017-Aug-15 17:30N 33°44' W 118°16'0 0.0
2017-Aug-15 17:00N 33°44' W 118°16'0 0.0
2017-Aug-15 16:31N 33°44' W 118°16'0 0.0
2017-Aug-15 15:59N 33°44' W 118°16'0 0.0
2017-Aug-15 15:29N 33°44' W 118°16'0 0.0
2017-Aug-15 14:58N 33°44' W 118°16'0 0.0
2017-Aug-15 14:28N 33°44' W 118°16'0 0.0
2017-Aug-15 13:59N 33°44' W 118°16'0 0.0
2017-Aug-15 13:28N 33°44' W 118°16'0 0.0
2017-Aug-15 13:00N 33°44' W 118°16'1 1.1
2017-Aug-15 12:30N 33°43' W 118°16'1 1.6
2017-Aug-15 12:00N 33°44' W 118°15'0 0.6
2017-Aug-15 11:30N 33°44' W 118°15'0 0.1
2017-Aug-15 10:57N 33°44' W 118°15'1 1.7
2017-Aug-15 10:29N 33°44' W 118°16'0 0.0
2017-Aug-15 10:00N 33°44' W 118°16'0 0.0
2017-Aug-15 09:30N 33°44' W 118°16'0 0.0
2017-Aug-15 09:00N 33°44' W 118°16'0 0.0
2017-Aug-15 08:30N 33°44' W 118°16'0 0.0
2017-Aug-15 08:00N 33°44' W 118°16'0 0.0
2017-Aug-15 07:30N 33°44' W 118°16'0 0.0
2017-Aug-15 06:59N 33°44' W 118°16'0 0.0
2017-Aug-15 06:30N 33°44' W 118°16'0 0.0
2017-Aug-15 05:59N 33°44' W 118°16'0 0.0
2017-Aug-15 05:30N 33°44' W 118°16'0 0.0
2017-Aug-15 04:58N 33°44' W 118°16'0 0.0
2017-Aug-15 04:29N 33°44' W 118°16'0 0.0
2017-Aug-15 04:00N 33°44' W 118°16'0 0.0
2017-Aug-15 03:30N 33°44' W 118°16'0 0.0
2017-Aug-15 03:00N 33°44' W 118°16'0 0.0
2017-Aug-15 02:30N 33°44' W 118°16'0 0.0
2017-Aug-15 02:00N 33°44' W 118°16'2 4.0
2017-Aug-15 01:30N 33°44' W 118°13'2 3.9
2017-Aug-15 01:00N 33°44' W 118°16'0 0.0
2017-Aug-15 00:30N 33°44' W 118°16'1 1.3
2017-Aug-15 00:00N 33°44' W 118°16'0 0.0
2017-Aug-14 23:30N 33°44' W 118°16'0 0.0
2017-Aug-14 23:01N 33°44' W 118°16'0 0.1
2017-Aug-14 22:30N 33°44' W 118°16'1 1.2
2017-Aug-14 22:00N 33°44' W 118°16'0 0.0
2017-Aug-14 21:30N 33°44' W 118°16'0 0.0
2017-Aug-14 21:00N 33°44' W 118°16'0 0.0
2017-Aug-14 20:30N 33°44' W 118°16'0 0.0
2017-Aug-14 20:00N 33°44' W 118°16'0 0.0
2017-Aug-14 19:30N 33°44' W 118°16'0 0.0
2017-Aug-14 19:00N 33°44' W 118°16'0 0.0
2017-Aug-14 18:30N 33°44' W 118°16'0 0.0
2017-Aug-14 17:59N 33°44' W 118°16'0 0.0
2017-Aug-14 17:30N 33°44' W 118°16'0 0.0
2017-Aug-14 16:59N 33°44' W 118°16'0 0.0
2017-Aug-14 16:29N 33°44' W 118°16'2 3.9
2017-Aug-14 16:00N 33°43' W 118°14'5 9.4
2017-Aug-14 15:31N 33°44' W 118°08'2 3.6
2017-Aug-14 14:57N 33°44' W 118°06'2 2.9
2017-Aug-14 14:25N 33°43' W 118°07'1 2.7
2017-Aug-14 14:00N 33°44' W 118°06'0 0.2
2017-Aug-14 13:31N 33°44' W 118°06'5 9.5
2017-Aug-14 13:00N 33°44' W 118°12'3 6.1
2017-Aug-14 12:29N 33°44' W 118°16'0 0.4
2017-Aug-14 12:00N 33°44' W 118°15'0 0.4
2017-Aug-14 11:30N 33°44' W 118°16'1 2.4
2017-Aug-14 11:00N 33°43' W 118°15'1 2.7
2017-Aug-14 10:30N 33°44' W 118°16'0 0.0
2017-Aug-14 10:01N 33°44' W 118°16'0 0.0
2017-Aug-14 09:29N 33°44' W 118°16'0 0.0
2017-Aug-14 09:00N 33°44' W 118°16'0 0.0
2017-Aug-14 08:30N 33°44' W 118°16'0 0.0
2017-Aug-14 07:59N 33°44' W 118°16'0 0.0
2017-Aug-14 07:30N 33°44' W 118°16'0 0.0
2017-Aug-14 07:00N 33°44' W 118°16'0 0.0
2017-Aug-14 06:30N 33°44' W 118°16'0 0.0
2017-Aug-14 06:00N 33°44' W 118°16'0 0.0
2017-Aug-14 05:30N 33°44' W 118°16'0 0.0
2017-Aug-14 05:01N 33°44' W 118°16'0 0.0
2017-Aug-14 04:31N 33°44' W 118°16'0 0.0
2017-Aug-14 03:59N 33°44' W 118°16'0 0.0
2017-Aug-14 03:30N 33°44' W 118°16'0 0.0
2017-Aug-14 03:00N 33°44' W 118°16'0 0.0
2017-Aug-14 02:31N 33°44' W 118°16'0 0.0
2017-Aug-14 02:01N 33°44' W 118°16'0 0.0
2017-Aug-14 01:30N 33°44' W 118°16'0 0.0
2017-Aug-14 01:01N 33°44' W 118°16'0 0.0
2017-Aug-14 00:30N 33°44' W 118°16'0 0.0
2017-Aug-14 00:00N 33°44' W 118°16'0 0.0
2017-Aug-13 23:30N 33°44' W 118°16'0 0.0
2017-Aug-13 23:01N 33°44' W 118°16'0 0.0
2017-Aug-13 22:30N 33°44' W 118°16'0 0.9
2017-Aug-13 22:00N 33°44' W 118°15'0 1.0
2017-Aug-13 21:30N 33°44' W 118°16'1 2.5
2017-Aug-13 21:01N 33°43' W 118°15'1 2.8
2017-Aug-13 20:30N 33°44' W 118°16'0 0.0
2017-Aug-13 20:00N 33°44' W 118°16'0 0.0
2017-Aug-13 19:30N 33°44' W 118°16'0 0.0
2017-Aug-13 19:00N 33°44' W 118°16'0 0.0
2017-Aug-13 18:30N 33°44' W 118°16'0 0.0
2017-Aug-13 18:00N 33°44' W 118°16'0 0.0
2017-Aug-13 17:30N 33°44' W 118°16'0 0.0
2017-Aug-13 17:00N 33°44' W 118°16'0 0.0
2017-Aug-13 16:31N 33°44' W 118°16'0 0.0
2017-Aug-13 15:58N 33°44' W 118°16'0 0.0
2017-Aug-13 15:31N 33°44' W 118°16'0 0.0
2017-Aug-13 15:00N 33°44' W 118°16'3 4.6
2017-Aug-13 14:24N 33°46' W 118°13'1 1.3
2017-Aug-13 14:00N 33°46' W 118°13'1 2.3
2017-Aug-13 13:30N 33°45' W 118°13'2 3.4
2017-Aug-13 12:59N 33°44' W 118°12'2 2.7
2017-Aug-13 12:24N 33°44' W 118°14'2 3.6
2017-Aug-13 11:57N 33°44' W 118°16'0 0.0
2017-Aug-13 11:25N 33°44' W 118°16'0 0.0
2017-Aug-13 10:59N 33°44' W 118°16'0 0.0
2017-Aug-13 10:30N 33°44' W 118°16'0 0.0
2017-Aug-13 10:00N 33°44' W 118°16'0 0.0
2017-Aug-13 09:30N 33°44' W 118°16'0 0.0
2017-Aug-13 09:00N 33°44' W 118°16'0 0.0
2017-Aug-13 08:30N 33°44' W 118°16'0 0.0
2017-Aug-13 08:00N 33°44' W 118°16'0 0.0
2017-Aug-13 07:30N 33°44' W 118°16'0 0.0
2017-Aug-13 07:00N 33°44' W 118°16'0 0.0
2017-Aug-13 06:30N 33°44' W 118°16'0 0.0
2017-Aug-13 06:01N 33°44' W 118°16'0 0.0
2017-Aug-13 05:30N 33°44' W 118°16'0 0.0
2017-Aug-13 05:00N 33°44' W 118°16'0 0.0
2017-Aug-13 04:30N 33°44' W 118°16'0 0.0
2017-Aug-13 04:01N 33°44' W 118°16'0 0.0
2017-Aug-13 03:30N 33°44' W 118°16'0 0.0
2017-Aug-13 03:00N 33°44' W 118°16'0 0.0
2017-Aug-13 02:31N 33°44' W 118°16'0 0.0
2017-Aug-13 02:00N 33°44' W 118°16'0 0.0
2017-Aug-13 01:30N 33°44' W 118°16'0 0.0
2017-Aug-13 01:00N 33°44' W 118°16'0 0.0
2017-Aug-13 00:30N 33°44' W 118°16'0 0.0
2017-Aug-13 00:01N 33°44' W 118°16'0 0.0
2017-Aug-12 23:30N 33°44' W 118°16'0 0.0
2017-Aug-12 23:00N 33°44' W 118°16'0 0.0
2017-Aug-12 22:30N 33°44' W 118°16'0 0.0
2017-Aug-12 22:00N 33°44' W 118°16'0 0.0
2017-Aug-12 21:30N 33°44' W 118°16'0 0.0
2017-Aug-12 21:00N 33°44' W 118°16'0 0.0
2017-Aug-12 20:30N 33°44' W 118°16'0 0.0
2017-Aug-12 20:00N 33°44' W 118°16'0 0.0
2017-Aug-12 19:30N 33°44' W 118°16'0 0.0
2017-Aug-12 19:00N 33°44' W 118°16'0 0.0
2017-Aug-12 18:30N 33°44' W 118°16'0 0.0
2017-Aug-12 18:00N 33°44' W 118°16'3 5.3
2017-Aug-12 17:30N 33°46' W 118°13'1 2.0
2017-Aug-12 17:00N 33°46' W 118°13'0 0.3
2017-Aug-12 16:31N 33°46' W 118°13'2 2.8
2017-Aug-12 15:52N 33°45' W 118°13'2 4.1
2017-Aug-12 15:30N 33°43' W 118°14'2 3.8
2017-Aug-12 15:01N 33°44' W 118°12'1 2.4
2017-Aug-12 14:30N 33°45' W 118°11'1 2.6
2017-Aug-12 14:01N 33°44' W 118°12'1 1.7
2017-Aug-12 13:21N 33°45' W 118°12'0 0.0
2017-Aug-12 12:58N 33°45' W 118°12'0 0.0
2017-Aug-12 12:30N 33°45' W 118°12'1 1.3
2017-Aug-12 12:00N 33°44' W 118°12'2 3.9
2017-Aug-12 11:31N 33°46' W 118°13'0 0.5
2017-Aug-12 10:59N 33°46' W 118°13'2 4.3
2017-Aug-12 10:31N 33°44' W 118°13'2 4.0
2017-Aug-12 10:00N 33°44' W 118°16'0 0.0
2017-Aug-12 09:31N 33°44' W 118°16'0 0.0
2017-Aug-12 09:00N 33°44' W 118°16'0 0.0
2017-Aug-12 08:31N 33°44' W 118°16'0 0.0
2017-Aug-12 08:01N 33°44' W 118°16'0 0.0
2017-Aug-12 07:30N 33°44' W 118°16'0 0.0
2017-Aug-12 07:00N 33°44' W 118°16'0 0.0
2017-Aug-12 06:31N 33°44' W 118°16'0 0.0
2017-Aug-12 06:01N 33°44' W 118°16'0 0.0
2017-Aug-12 05:30N 33°44' W 118°16'0 0.0
2017-Aug-12 05:01N 33°44' W 118°16'0 0.0
2017-Aug-12 04:31N 33°44' W 118°16'0 0.0
2017-Aug-12 04:00N 33°44' W 118°16'0 0.0
2017-Aug-12 03:30N 33°44' W 118°16'0 0.0
2017-Aug-12 03:01N 33°44' W 118°16'0 0.0
2017-Aug-12 02:31N 33°44' W 118°16'0 0.0
2017-Aug-12 02:00N 33°44' W 118°16'0 0.0
2017-Aug-12 01:31N 33°44' W 118°16'0 0.0
2017-Aug-12 01:00N 33°44' W 118°16'0 0.0
2017-Aug-12 00:31N 33°44' W 118°16'0 0.0
2017-Aug-12 00:00N 33°44' W 118°16'0 0.0
2017-Aug-11 23:30N 33°44' W 118°16'0 0.0
2017-Aug-11 23:01N 33°44' W 118°16'0 0.0
2017-Aug-11 22:31N 33°44' W 118°16'0 0.0
2017-Aug-11 22:00N 33°44' W 118°16'0 0.0
2017-Aug-11 21:30N 33°44' W 118°16'0 0.0
2017-Aug-11 21:01N 33°44' W 118°16'0 0.0
2017-Aug-11 20:31N 33°44' W 118°16'0 0.0
2017-Aug-11 20:00N 33°44' W 118°16'0 0.0
2017-Aug-11 19:30N 33°44' W 118°16'0 0.0
2017-Aug-11 19:00N 33°44' W 118°16'0 0.0
2017-Aug-11 18:30N 33°44' W 118°16'0 0.0
2017-Aug-11 18:00N 33°44' W 118°16'1 1.5
2017-Aug-11 17:30N 33°44' W 118°17'1 1.5
2017-Aug-11 17:01N 33°45' W 118°16'1 1.6
2017-Aug-11 16:29N 33°46' W 118°16'1 1.1
2017-Aug-11 16:00N 33°45' W 118°16'2 4.4
2017-Aug-11 15:30N 33°43' W 118°16'1 2.1
2017-Aug-11 15:00N 33°43' W 118°15'1 2.8
2017-Aug-11 14:31N 33°44' W 118°16'1 0.7
2017-Aug-11 13:29N 33°44' W 118°17'1 2.3
2017-Aug-11 12:59N 33°45' W 118°16'1 2.8
2017-Aug-11 12:30N 33°44' W 118°16'2 3.5
2017-Aug-11 12:00N 33°43' W 118°15'0 0.3
2017-Aug-11 11:31N 33°43' W 118°15'0 0.2
2017-Aug-11 11:00N 33°43' W 118°15'1 1.9
2017-Aug-11 10:31N 33°43' W 118°16'1 2.3
2017-Aug-11 10:00N 33°44' W 118°15'1 1.0
2017-Aug-11 09:31N 33°44' W 118°16'0 0.0
2017-Aug-11 09:00N 33°44' W 118°16'0 0.0
2017-Aug-11 08:30N 33°44' W 118°16'0 0.0
2017-Aug-11 08:01N 33°44' W 118°16'0 0.0
2017-Aug-11 07:30N 33°44' W 118°16'0 0.0
2017-Aug-11 07:00N 33°44' W 118°16'0 0.0
2017-Aug-11 06:31N 33°44' W 118°16'0 0.0
2017-Aug-11 06:00N 33°44' W 118°16'0 0.0
2017-Aug-11 05:31N 33°44' W 118°16'0 0.0
2017-Aug-11 05:00N 33°44' W 118°16'0 0.0
2017-Aug-11 04:30N 33°44' W 118°16'0 0.0
2017-Aug-11 04:00N 33°44' W 118°16'0 0.0
2017-Aug-11 03:30N 33°44' W 118°16'0 0.0
2017-Aug-11 03:01N 33°44' W 118°16'0 0.0
2017-Aug-11 02:31N 33°44' W 118°16'2 3.6
2017-Aug-11 02:00N 33°46' W 118°17'1 2.1
2017-Aug-11 01:30N 33°44' W 118°17'1 1.9
2017-Aug-11 01:00N 33°44' W 118°16'0 0.0
2017-Aug-11 00:31N 33°44' W 118°16'1 1.5
2017-Aug-11 00:01N 33°43' W 118°16'1 1.6
2017-Aug-10 23:31N 33°44' W 118°15'0 0.0
2017-Aug-10 23:00N 33°44' W 118°15'0 0.2
2017-Aug-10 22:30N 33°44' W 118°15'0 0.1
2017-Aug-10 22:00N 33°44' W 118°15'0 0.4
2017-Aug-10 21:30N 33°44' W 118°16'0 0.0
2017-Aug-10 21:01N 33°44' W 118°16'0 0.0
2017-Aug-10 20:30N 33°44' W 118°16'0 0.0
2017-Aug-10 20:01N 33°44' W 118°16'0 0.0
2017-Aug-10 19:31N 33°44' W 118°16'0 0.0
2017-Aug-10 19:00N 33°44' W 118°16'0 0.0
2017-Aug-10 18:30N 33°44' W 118°16'0 0.0
2017-Aug-10 18:00N 33°44' W 118°16'0 0.0
2017-Aug-10 17:30N 33°44' W 118°16'0 0.0
2017-Aug-10 17:00N 33°44' W 118°16'0 0.0
2017-Aug-10 16:30N 33°44' W 118°16'1 1.4
2017-Aug-10 16:00N 33°44' W 118°17'2 3.6
2017-Aug-10 15:31N 33°46' W 118°16'0 0.6
2017-Aug-10 15:01N 33°45' W 118°16'3 5.4
2017-Aug-10 14:30N 33°43' W 118°14'2 1.7
2017-Aug-10 13:30N 33°45' W 118°13'2 3.3
2017-Aug-10 13:01N 33°44' W 118°11'1 1.6
2017-Aug-10 12:30N 33°44' W 118°12'3 6.0
2017-Aug-10 12:00N 33°44' W 118°16'0 0.0
2017-Aug-10 11:30N 33°44' W 118°16'0 0.0
2017-Aug-10 11:01N 33°44' W 118°16'0 0.0
2017-Aug-10 10:31N 33°44' W 118°16'0 0.0
2017-Aug-10 10:00N 33°44' W 118°16'0 0.0
2017-Aug-10 09:30N 33°44' W 118°16'0 0.0
2017-Aug-10 09:00N 33°44' W 118°16'0 0.0
2017-Aug-10 08:31N 33°44' W 118°16'0 0.0
2017-Aug-10 08:01N 33°44' W 118°16'0 0.0
2017-Aug-10 07:31N 33°44' W 118°16'0 0.0
2017-Aug-10 07:01N 33°44' W 118°16'0 0.0
2017-Aug-10 06:30N 33°44' W 118°16'0 0.0
2017-Aug-10 06:01N 33°44' W 118°16'0 0.0
2017-Aug-10 05:30N 33°44' W 118°16'0 0.0
2017-Aug-10 05:00N 33°44' W 118°16'0 0.0
2017-Aug-10 04:29N 33°44' W 118°16'0 0.0
2017-Aug-10 04:01N 33°44' W 118°16'0 0.0
2017-Aug-10 03:31N 33°44' W 118°16'0 0.0
2017-Aug-10 03:00N 33°44' W 118°16'0 0.0
2017-Aug-10 02:30N 33°44' W 118°16'0 0.0
2017-Aug-10 02:01N 33°44' W 118°16'0 0.0
2017-Aug-10 01:30N 33°44' W 118°16'0 0.0
2017-Aug-10 01:00N 33°44' W 118°16'0 0.0
2017-Aug-10 00:30N 33°44' W 118°16'0 0.0
2017-Aug-10 00:01N 33°44' W 118°16'0 0.0
2017-Aug-09 23:30N 33°44' W 118°16'0 0.0
2017-Aug-09 23:00N 33°44' W 118°16'0 0.0
2017-Aug-09 22:30N 33°44' W 118°16'0 0.0
2017-Aug-09 22:01N 33°44' W 118°16'0 0.0
2017-Aug-09 21:30N 33°44' W 118°16'0 0.0
2017-Aug-09 21:00N 33°44' W 118°16'0 0.0
2017-Aug-09 20:31N 33°44' W 118°16'0 0.0
2017-Aug-09 20:00N 33°44' W 118°16'0 0.0
2017-Aug-09 19:30N 33°44' W 118°16'0 0.0
2017-Aug-09 19:00N 33°44' W 118°16'0 0.0
2017-Aug-09 18:30N 33°44' W 118°16'0 0.0
2017-Aug-09 18:00N 33°44' W 118°16'0 0.0
2017-Aug-09 17:30N 33°44' W 118°16'0 0.0
2017-Aug-09 17:00N 33°44' W 118°16'0 0.0
2017-Aug-09 16:30N 33°44' W 118°16'0 0.0
2017-Aug-09 16:00N 33°44' W 118°16'0 0.0
2017-Aug-09 15:31N 33°44' W 118°16'0 0.0
2017-Aug-09 15:00N 33°44' W 118°16'0 0.0
2017-Aug-09 14:30N 33°44' W 118°16'0 0.0
2017-Aug-09 14:00N 33°44' W 118°16'0 0.0
2017-Aug-09 13:30N 33°44' W 118°16'0 0.0
2017-Aug-09 13:00N 33°44' W 118°16'0 0.0
2017-Aug-09 12:30N 33°44' W 118°16'0 0.0
2017-Aug-09 11:59N 33°44' W 118°16'0 0.0
2017-Aug-09 11:30N 33°44' W 118°16'0 0.0
2017-Aug-09 11:01N 33°44' W 118°16'0 0.0
2017-Aug-09 10:31N 33°44' W 118°16'0 0.0
2017-Aug-09 10:01N 33°44' W 118°16'0 0.0
2017-Aug-09 09:30N 33°44' W 118°16'0 0.0
2017-Aug-09 09:01N 33°44' W 118°16'0 0.0
2017-Aug-09 08:30N 33°44' W 118°16'0 0.0
2017-Aug-09 08:01N 33°44' W 118°16'0 0.0
2017-Aug-09 07:30N 33°44' W 118°16'0 0.0
2017-Aug-09 07:00N 33°44' W 118°16'0 0.0
2017-Aug-09 06:30N 33°44' W 118°16'0 0.0
2017-Aug-09 06:01N 33°44' W 118°16'0 0.0
2017-Aug-09 05:31N 33°44' W 118°16'0 0.0
2017-Aug-09 05:00N 33°44' W 118°16'0 0.0
2017-Aug-09 04:30N 33°44' W 118°16'0 0.0
2017-Aug-09 04:00N 33°44' W 118°16'0 0.0
2017-Aug-09 03:31N 33°44' W 118°16'0 0.0
2017-Aug-09 03:00N 33°44' W 118°16'0 0.0
2017-Aug-09 02:31N 33°44' W 118°16'0 0.0
2017-Aug-09 02:01N 33°44' W 118°16'0 0.0
2017-Aug-09 01:31N 33°44' W 118°16'0 0.0
2017-Aug-09 01:00N 33°44' W 118°16'0 0.0
2017-Aug-09 00:30N 33°44' W 118°16'0 0.0
2017-Aug-09 00:00N 33°44' W 118°16'0 0.0
2017-Aug-08 23:31N 33°44' W 118°16'0 0.0
2017-Aug-08 23:00N 33°44' W 118°16'0 0.0
2017-Aug-08 22:31N 33°44' W 118°16'0 0.0
2017-Aug-08 22:00N 33°44' W 118°16'0 0.0
2017-Aug-08 21:30N 33°44' W 118°16'0 0.0
2017-Aug-08 21:00N 33°44' W 118°16'0 0.0
2017-Aug-08 20:31N 33°44' W 118°16'0 0.0
2017-Aug-08 20:00N 33°44' W 118°16'0 0.0
2017-Aug-08 19:30N 33°44' W 118°16'0 0.0
2017-Aug-08 19:00N 33°44' W 118°16'1 2.1
2017-Aug-08 18:30N 33°43' W 118°15'3 5.9
2017-Aug-08 18:00N 33°45' W 118°13'0 0.2
2017-Aug-08 17:30N 33°45' W 118°13'0 0.1
2017-Aug-08 16:56N 33°45' W 118°13'1 1.3
2017-Aug-08 16:30N 33°45' W 118°13'2 4.9
2017-Aug-08 16:00N 33°44' W 118°16'0 0.0
2017-Aug-08 15:30N 33°44' W 118°16'0 0.0
2017-Aug-08 15:00N 33°44' W 118°16'0 0.0
2017-Aug-08 14:31N 33°44' W 118°16'0 0.0
2017-Aug-08 14:00N 33°44' W 118°16'0 0.0
2017-Aug-08 13:30N 33°44' W 118°16'0 0.0
2017-Aug-08 13:00N 33°44' W 118°16'3 5.0
2017-Aug-08 12:30N 33°45' W 118°13'1 1.3
2017-Aug-08 12:00N 33°46' W 118°13'2 4.2
2017-Aug-08 11:30N 33°44' W 118°12'0 0.5
2017-Aug-08 11:01N 33°44' W 118°12'3 6.6
2017-Aug-08 10:30N 33°44' W 118°16'0 0.5
2017-Aug-08 10:00N 33°44' W 118°16'0 0.0
2017-Aug-08 09:30N 33°44' W 118°16'0 0.0
2017-Aug-08 09:00N 33°44' W 118°16'0 0.0
2017-Aug-08 08:30N 33°44' W 118°16'0 0.0
2017-Aug-08 08:00N 33°44' W 118°16'0 0.0
2017-Aug-08 07:31N 33°44' W 118°16'0 0.0
2017-Aug-08 07:00N 33°44' W 118°16'0 0.0
2017-Aug-08 06:30N 33°44' W 118°16'0 0.0
2017-Aug-08 06:00N 33°44' W 118°16'0 0.0
2017-Aug-08 05:30N 33°44' W 118°16'0 0.0
2017-Aug-08 05:00N 33°44' W 118°16'0 0.0
2017-Aug-08 04:30N 33°44' W 118°16'0 0.0
2017-Aug-08 04:00N 33°44' W 118°16'0 0.0
2017-Aug-08 03:31N 33°44' W 118°16'0 0.0
2017-Aug-08 03:00N 33°44' W 118°16'0 0.0
2017-Aug-08 02:31N 33°44' W 118°16'0 0.0
2017-Aug-08 02:00N 33°44' W 118°16'0 0.0
2017-Aug-08 01:30N 33°44' W 118°16'3 5.0
2017-Aug-08 01:00N 33°45' W 118°13'0 0.4
2017-Aug-08 00:31N 33°45' W 118°13'0 0.0
2017-Aug-08 00:00N 33°45' W 118°13'0 0.0
2017-Aug-07 23:30N 33°45' W 118°13'0 0.0
2017-Aug-07 23:00N 33°45' W 118°13'1 1.9
2017-Aug-07 22:30N 33°44' W 118°13'2 3.3
2017-Aug-07 22:00N 33°43' W 118°11'0 0.3
2017-Aug-07 21:30N 33°43' W 118°11'3 6.2
2017-Aug-07 21:00N 33°43' W 118°15'  

Dump ship's entire track history